sensor_id;sensor_type;location;lat;lon;timestamp;temperature;humidity
83289;DHT22;73193;50.866;5.420;2023-11-18T00:00:14;8.60;64.70
83289;DHT22;73193;50.866;5.420;2023-11-18T00:01:47;8.60;64.70
83289;DHT22;73193;50.866;5.420;2023-11-18T00:03:18;8.70;64.50
83289;DHT22;73193;50.866;5.420;2023-11-18T00:04:48;8.70;64.80
83289;DHT22;73193;50.866;5.420;2023-11-18T00:06:19;8.60;64.80
83289;DHT22;73193;50.866;5.420;2023-11-18T00:07:50;8.70;64.60
83289;DHT22;73193;50.866;5.420;2023-11-18T00:09:21;8.70;64.90
83289;DHT22;73193;50.866;5.420;2023-11-18T00:10:53;8.60;64.90
83289;DHT22;73193;50.866;5.420;2023-11-18T00:12:24;8.70;64.90
83289;DHT22;73193;50.866;5.420;2023-11-18T00:13:55;8.70;65.10
83289;DHT22;73193;50.866;5.420;2023-11-18T00:15:26;8.60;65.00
83289;DHT22;73193;50.866;5.420;2023-11-18T00:16:56;8.60;65.10
83289;DHT22;73193;50.866;5.420;2023-11-18T00:18:29;8.60;65.50
83289;DHT22;73193;50.866;5.420;2023-11-18T00:20:02;8.60;65.30
83289;DHT22;73193;50.866;5.420;2023-11-18T00:21:39;8.70;65.00
83289;DHT22;73193;50.866;5.420;2023-11-18T00:23:10;8.70;65.10
83289;DHT22;73193;50.866;5.420;2023-11-18T00:24:41;8.80;65.00
83289;DHT22;73193;50.866;5.420;2023-11-18T00:26:12;8.80;64.80
83289;DHT22;73193;50.866;5.420;2023-11-18T00:27:44;8.80;64.60
83289;DHT22;73193;50.866;5.420;2023-11-18T00:29:14;8.80;64.50
83289;DHT22;73193;50.866;5.420;2023-11-18T00:30:45;8.70;65.00
83289;DHT22;73193;50.866;5.420;2023-11-18T00:32:16;8.60;65.00
83289;DHT22;73193;50.866;5.420;2023-11-18T00:33:47;8.70;64.80
83289;DHT22;73193;50.866;5.420;2023-11-18T00:35:17;8.80;64.70
83289;DHT22;73193;50.866;5.420;2023-11-18T00:36:48;8.70;65.10
83289;DHT22;73193;50.866;5.420;2023-11-18T00:38:18;8.60;65.20
83289;DHT22;73193;50.866;5.420;2023-11-18T00:39:49;8.60;65.20
83289;DHT22;73193;50.866;5.420;2023-11-18T00:41:20;8.60;65.10
83289;DHT22;73193;50.866;5.420;2023-11-18T00:42:51;8.60;64.90
83289;DHT22;73193;50.866;5.420;2023-11-18T00:44:22;8.80;64.80
83289;DHT22;73193;50.866;5.420;2023-11-18T00:45:53;8.60;64.90
83289;DHT22;73193;50.866;5.420;2023-11-18T00:47:23;8.60;64.80
83289;DHT22;73193;50.866;5.420;2023-11-18T00:48:54;8.70;64.50
83289;DHT22;73193;50.866;5.420;2023-11-18T00:50:28;8.70;64.40
83289;DHT22;73193;50.866;5.420;2023-11-18T00:51:59;8.60;64.60
83289;DHT22;73193;50.866;5.420;2023-11-18T00:53:29;8.60;64.50
83289;DHT22;73193;50.866;5.420;2023-11-18T00:55:00;8.60;64.80
83289;DHT22;73193;50.866;5.420;2023-11-18T00:56:31;8.50;65.00
83289;DHT22;73193;50.866;5.420;2023-11-18T00:58:02;8.50;64.80
83289;DHT22;73193;50.866;5.420;2023-11-18T00:59:33;8.50;64.60
83289;DHT22;73193;50.866;5.420;2023-11-18T01:01:04;8.40;65.00
83289;DHT22;73193;50.866;5.420;2023-11-18T01:02:37;8.40;64.80
83289;DHT22;73193;50.866;5.420;2023-11-18T01:04:09;8.40;65.00
83289;DHT22;73193;50.866;5.420;2023-11-18T01:05:39;8.40;65.10
83289;DHT22;73193;50.866;5.420;2023-11-18T01:07:11;8.40;65.30
83289;DHT22;73193;50.866;5.420;2023-11-18T01:08:48;8.40;65.10
83289;DHT22;73193;50.866;5.420;2023-11-18T01:10:19;8.40;65.20
83289;DHT22;73193;50.866;5.420;2023-11-18T01:11:49;8.40;64.80
83289;DHT22;73193;50.866;5.420;2023-11-18T01:13:20;8.40;65.40
83289;DHT22;73193;50.866;5.420;2023-11-18T01:14:51;8.40;65.40
83289;DHT22;73193;50.866;5.420;2023-11-18T01:16:22;8.50;65.20
83289;DHT22;73193;50.866;5.420;2023-11-18T01:17:52;8.50;65.10
83289;DHT22;73193;50.866;5.420;2023-11-18T01:19:23;8.60;64.90
83289;DHT22;73193;50.866;5.420;2023-11-18T01:20:54;8.60;64.80
83289;DHT22;73193;50.866;5.420;2023-11-18T01:22:25;8.60;64.60
83289;DHT22;73193;50.866;5.420;2023-11-18T01:23:55;8.60;64.80
83289;DHT22;73193;50.866;5.420;2023-11-18T01:25:26;8.60;64.60
83289;DHT22;73193;50.866;5.420;2023-11-18T01:26:57;8.80;64.60
83289;DHT22;73193;50.866;5.420;2023-11-18T01:28:29;8.80;64.60
83289;DHT22;73193;50.866;5.420;2023-11-18T01:30:01;8.80;64.50
83289;DHT22;73193;50.866;5.420;2023-11-18T01:31:32;8.70;65.00
83289;DHT22;73193;50.866;5.420;2023-11-18T01:33:03;8.60;65.20
83289;DHT22;73193;50.866;5.420;2023-11-18T01:34:35;8.60;65.30
83289;DHT22;73193;50.866;5.420;2023-11-18T01:36:07;8.60;65.10
83289;DHT22;73193;50.866;5.420;2023-11-18T01:37:41;8.70;65.00
83289;DHT22;73193;50.866;5.420;2023-11-18T01:39:11;8.80;65.00
83289;DHT22;73193;50.866;5.420;2023-11-18T01:40:43;8.70;65.00
83289;DHT22;73193;50.866;5.420;2023-11-18T01:42:14;8.60;65.50
83289;DHT22;73193;50.866;5.420;2023-11-18T01:43:46;8.60;65.60
83289;DHT22;73193;50.866;5.420;2023-11-18T01:45:17;8.60;65.80
83289;DHT22;73193;50.866;5.420;2023-11-18T01:46:48;8.60;65.60
83289;DHT22;73193;50.866;5.420;2023-11-18T01:48:19;8.80;65.50
83289;DHT22;73193;50.866;5.420;2023-11-18T01:49:53;8.80;65.20
83289;DHT22;73193;50.866;5.420;2023-11-18T01:51:23;8.80;65.60
83289;DHT22;73193;50.866;5.420;2023-11-18T01:52:54;8.80;65.50
83289;DHT22;73193;50.866;5.420;2023-11-18T01:54:25;8.90;65.10
83289;DHT22;73193;50.866;5.420;2023-11-18T01:55:56;8.90;65.20
83289;DHT22;73193;50.866;5.420;2023-11-18T01:57:29;8.90;64.90
83289;DHT22;73193;50.866;5.420;2023-11-18T01:59:01;9.00;64.70
83289;DHT22;73193;50.866;5.420;2023-11-18T02:00:39;8.90;65.40
83289;DHT22;73193;50.866;5.420;2023-11-18T02:02:12;8.90;65.30
83289;DHT22;73193;50.866;5.420;2023-11-18T02:03:44;8.80;65.60
83289;DHT22;73193;50.866;5.420;2023-11-18T02:05:15;8.80;65.50
83289;DHT22;73193;50.866;5.420;2023-11-18T02:06:50;8.90;65.50
83289;DHT22;73193;50.866;5.420;2023-11-18T02:08:21;8.80;65.70
83289;DHT22;73193;50.866;5.420;2023-11-18T02:09:53;8.80;65.70
83289;DHT22;73193;50.866;5.420;2023-11-18T02:11:34;8.80;65.80
83289;DHT22;73193;50.866;5.420;2023-11-18T02:14:50;8.80;65.60
83289;DHT22;73193;50.866;5.420;2023-11-18T02:16:22;8.90;65.60
83289;DHT22;73193;50.866;5.420;2023-11-18T02:17:55;8.90;65.50
83289;DHT22;73193;50.866;5.420;2023-11-18T02:19:29;8.90;65.60
83289;DHT22;73193;50.866;5.420;2023-11-18T02:21:00;8.90;65.60
83289;DHT22;73193;50.866;5.420;2023-11-18T02:22:32;8.90;65.60
83289;DHT22;73193;50.866;5.420;2023-11-18T02:24:03;9.00;65.50
83289;DHT22;73193;50.866;5.420;2023-11-18T02:25:45;9.00;65.30
83289;DHT22;73193;50.866;5.420;2023-11-18T02:27:16;9.00;65.10
83289;DHT22;73193;50.866;5.420;2023-11-18T02:28:49;9.00;65.10
83289;DHT22;73193;50.866;5.420;2023-11-18T02:30:20;8.90;65.70
83289;DHT22;73193;50.866;5.420;2023-11-18T02:31:53;9.00;65.40
83289;DHT22;73193;50.866;5.420;2023-11-18T02:33:33;9.00;65.20
83289;DHT22;73193;50.866;5.420;2023-11-18T02:35:10;9.10;65.00
83289;DHT22;73193;50.866;5.420;2023-11-18T02:36:46;9.10;65.00
83289;DHT22;73193;50.866;5.420;2023-11-18T02:38:21;9.00;64.90
83289;DHT22;73193;50.866;5.420;2023-11-18T02:39:57;9.00;65.00
83289;DHT22;73193;50.866;5.420;2023-11-18T02:41:30;8.90;65.40
83289;DHT22;73193;50.866;5.420;2023-11-18T02:43:02;8.80;65.70
83289;DHT22;73193;50.866;5.420;2023-11-18T02:44:36;8.90;65.60
83289;DHT22;73193;50.866;5.420;2023-11-18T02:46:11;8.90;65.50
83289;DHT22;73193;50.866;5.420;2023-11-18T02:47:45;8.90;65.40
83289;DHT22;73193;50.866;5.420;2023-11-18T02:49:16;8.90;65.20
83289;DHT22;73193;50.866;5.420;2023-11-18T02:50:48;8.80;65.30
83289;DHT22;73193;50.866;5.420;2023-11-18T02:52:18;8.90;65.40
83289;DHT22;73193;50.866;5.420;2023-11-18T02:53:49;9.00;64.80
83289;DHT22;73193;50.866;5.420;2023-11-18T02:55:21;9.00;64.70
83289;DHT22;73193;50.866;5.420;2023-11-18T02:56:53;9.00;64.60
83289;DHT22;73193;50.866;5.420;2023-11-18T02:58:23;9.00;64.80
83289;DHT22;73193;50.866;5.420;2023-11-18T02:59:54;8.90;64.70
83289;DHT22;73193;50.866;5.420;2023-11-18T03:01:25;8.90;64.60
83289;DHT22;73193;50.866;5.420;2023-11-18T03:02:57;8.90;64.70
83289;DHT22;73193;50.866;5.420;2023-11-18T03:04:28;8.80;64.70
83289;DHT22;73193;50.866;5.420;2023-11-18T03:05:59;8.80;64.50
83289;DHT22;73193;50.866;5.420;2023-11-18T03:07:30;8.80;64.60
83289;DHT22;73193;50.866;5.420;2023-11-18T03:09:01;8.80;64.40
83289;DHT22;73193;50.866;5.420;2023-11-18T03:10:33;8.80;64.60
83289;DHT22;73193;50.866;5.420;2023-11-18T03:12:06;8.70;64.70
83289;DHT22;73193;50.866;5.420;2023-11-18T03:13:38;8.60;64.70
83289;DHT22;73193;50.866;5.420;2023-11-18T03:15:09;8.70;64.80
83289;DHT22;73193;50.866;5.420;2023-11-18T03:16:40;8.70;64.50
83289;DHT22;73193;50.866;5.420;2023-11-18T03:18:10;8.70;64.50
83289;DHT22;73193;50.866;5.420;2023-11-18T03:19:41;8.80;64.70
83289;DHT22;73193;50.866;5.420;2023-11-18T03:21:12;8.60;64.70
83289;DHT22;73193;50.866;5.420;2023-11-18T03:22:44;8.60;64.90
83289;DHT22;73193;50.866;5.420;2023-11-18T03:24:15;8.60;65.50
83289;DHT22;73193;50.866;5.420;2023-11-18T03:25:46;8.60;65.20
83289;DHT22;73193;50.866;5.420;2023-11-18T03:27:17;8.60;65.70
83289;DHT22;73193;50.866;5.420;2023-11-18T03:28:48;8.60;65.70
83289;DHT22;73193;50.866;5.420;2023-11-18T03:30:20;8.60;65.60
83289;DHT22;73193;50.866;5.420;2023-11-18T03:31:51;8.60;65.60
83289;DHT22;73193;50.866;5.420;2023-11-18T03:33:21;8.60;65.70
83289;DHT22;73193;50.866;5.420;2023-11-18T03:34:52;8.60;65.30
83289;DHT22;73193;50.866;5.420;2023-11-18T03:36:23;8.60;65.60
83289;DHT22;73193;50.866;5.420;2023-11-18T03:37:53;8.60;65.80
83289;DHT22;73193;50.866;5.420;2023-11-18T03:39:25;8.60;66.10
83289;DHT22;73193;50.866;5.420;2023-11-18T03:40:57;8.60;66.00
83289;DHT22;73193;50.866;5.420;2023-11-18T03:42:28;8.60;66.00
83289;DHT22;73193;50.866;5.420;2023-11-18T03:43:59;8.60;66.00
83289;DHT22;73193;50.866;5.420;2023-11-18T03:45:30;8.60;65.80
83289;DHT22;73193;50.866;5.420;2023-11-18T03:47:01;8.60;66.00
83289;DHT22;73193;50.866;5.420;2023-11-18T03:48:33;8.60;66.10
83289;DHT22;73193;50.866;5.420;2023-11-18T03:50:04;8.70;66.00
83289;DHT22;73193;50.866;5.420;2023-11-18T03:51:35;8.70;65.50
83289;DHT22;73193;50.866;5.420;2023-11-18T03:53:06;8.80;65.80
83289;DHT22;73193;50.866;5.420;2023-11-18T03:54:37;8.80;65.50
83289;DHT22;73193;50.866;5.420;2023-11-18T03:56:08;8.80;65.70
83289;DHT22;73193;50.866;5.420;2023-11-18T03:57:39;8.80;65.50
83289;DHT22;73193;50.866;5.420;2023-11-18T03:59:10;8.90;65.30
83289;DHT22;73193;50.866;5.420;2023-11-18T04:00:41;8.90;65.30
83289;DHT22;73193;50.866;5.420;2023-11-18T04:02:11;8.80;65.60
83289;DHT22;73193;50.866;5.420;2023-11-18T04:03:42;8.80;65.50
83289;DHT22;73193;50.866;5.420;2023-11-18T04:05:13;8.90;65.30
83289;DHT22;73193;50.866;5.420;2023-11-18T04:06:44;8.90;65.30
83289;DHT22;73193;50.866;5.420;2023-11-18T04:08:17;8.90;65.60
83289;DHT22;73193;50.866;5.420;2023-11-18T04:09:47;8.90;65.60
83289;DHT22;73193;50.866;5.420;2023-11-18T04:11:18;8.90;65.70
83289;DHT22;73193;50.866;5.420;2023-11-18T04:12:49;8.80;66.10
83289;DHT22;73193;50.866;5.420;2023-11-18T04:14:19;8.90;65.60
83289;DHT22;73193;50.866;5.420;2023-11-18T04:15:51;9.00;65.40
83289;DHT22;73193;50.866;5.420;2023-11-18T04:17:22;9.00;65.70
83289;DHT22;73193;50.866;5.420;2023-11-18T04:18:53;9.00;65.30
83289;DHT22;73193;50.866;5.420;2023-11-18T04:20:23;8.90;65.00
83289;DHT22;73193;50.866;5.420;2023-11-18T04:21:54;8.90;65.40
83289;DHT22;73193;50.866;5.420;2023-11-18T04:23:25;8.80;65.90
83289;DHT22;73193;50.866;5.420;2023-11-18T04:24:55;8.70;66.10
83289;DHT22;73193;50.866;5.420;2023-11-18T04:26:26;8.60;66.30
83289;DHT22;73193;50.866;5.420;2023-11-18T04:27:56;8.80;66.00
83289;DHT22;73193;50.866;5.420;2023-11-18T04:29:27;8.70;66.20
83289;DHT22;73193;50.866;5.420;2023-11-18T04:30:58;8.60;66.60
83289;DHT22;73193;50.866;5.420;2023-11-18T04:32:29;8.80;66.30
83289;DHT22;73193;50.866;5.420;2023-11-18T04:34:02;8.90;66.10
83289;DHT22;73193;50.866;5.420;2023-11-18T04:35:34;8.90;66.10
83289;DHT22;73193;50.866;5.420;2023-11-18T04:37:05;8.90;66.10
83289;DHT22;73193;50.866;5.420;2023-11-18T04:38:36;8.90;66.10
83289;DHT22;73193;50.866;5.420;2023-11-18T04:40:07;8.90;66.30
83289;DHT22;73193;50.866;5.420;2023-11-18T04:41:39;8.90;66.20
83289;DHT22;73193;50.866;5.420;2023-11-18T04:43:10;9.00;66.00
83289;DHT22;73193;50.866;5.420;2023-11-18T04:44:41;8.90;66.20
83289;DHT22;73193;50.866;5.420;2023-11-18T04:46:12;9.00;66.40
83289;DHT22;73193;50.866;5.420;2023-11-18T04:47:42;9.00;66.20
83289;DHT22;73193;50.866;5.420;2023-11-18T04:49:13;8.90;66.40
83289;DHT22;73193;50.866;5.420;2023-11-18T04:50:44;9.00;66.50
83289;DHT22;73193;50.866;5.420;2023-11-18T04:52:15;9.00;66.10
83289;DHT22;73193;50.866;5.420;2023-11-18T04:53:46;9.00;65.90
83289;DHT22;73193;50.866;5.420;2023-11-18T04:55:16;9.20;66.00
83289;DHT22;73193;50.866;5.420;2023-11-18T04:56:47;9.20;65.60
83289;DHT22;73193;50.866;5.420;2023-11-18T04:58:18;9.20;65.80
83289;DHT22;73193;50.866;5.420;2023-11-18T04:59:49;9.20;65.80
83289;DHT22;73193;50.866;5.420;2023-11-18T05:01:20;9.20;66.00
83289;DHT22;73193;50.866;5.420;2023-11-18T05:02:50;9.10;65.90
83289;DHT22;73193;50.866;5.420;2023-11-18T05:04:21;9.10;65.90
83289;DHT22;73193;50.866;5.420;2023-11-18T05:05:52;9.20;65.90
83289;DHT22;73193;50.866;5.420;2023-11-18T05:07:22;9.20;65.80
83289;DHT22;73193;50.866;5.420;2023-11-18T05:08:53;9.20;65.60
83289;DHT22;73193;50.866;5.420;2023-11-18T05:10:24;9.30;65.40
83289;DHT22;73193;50.866;5.420;2023-11-18T05:11:57;9.30;65.60
83289;DHT22;73193;50.866;5.420;2023-11-18T05:13:27;9.20;65.60
83289;DHT22;73193;50.866;5.420;2023-11-18T05:15:00;9.30;65.60
83289;DHT22;73193;50.866;5.420;2023-11-18T05:16:31;9.40;65.40
83289;DHT22;73193;50.866;5.420;2023-11-18T05:18:02;9.40;65.20
83289;DHT22;73193;50.866;5.420;2023-11-18T05:19:32;9.40;65.30
83289;DHT22;73193;50.866;5.420;2023-11-18T05:21:04;9.50;65.10
83289;DHT22;73193;50.866;5.420;2023-11-18T05:22:35;9.40;65.10
83289;DHT22;73193;50.866;5.420;2023-11-18T05:24:09;9.40;65.40
83289;DHT22;73193;50.866;5.420;2023-11-18T05:25:40;9.20;65.70
83289;DHT22;73193;50.866;5.420;2023-11-18T05:27:11;9.30;65.60
83289;DHT22;73193;50.866;5.420;2023-11-18T05:28:41;9.40;65.30
83289;DHT22;73193;50.866;5.420;2023-11-18T05:30:15;9.40;65.00
83289;DHT22;73193;50.866;5.420;2023-11-18T05:31:46;9.40;65.30
83289;DHT22;73193;50.866;5.420;2023-11-18T05:33:17;9.30;65.40
83289;DHT22;73193;50.866;5.420;2023-11-18T05:34:49;9.30;65.30
83289;DHT22;73193;50.866;5.420;2023-11-18T05:36:21;9.40;65.30
83289;DHT22;73193;50.866;5.420;2023-11-18T05:37:57;9.30;65.20
83289;DHT22;73193;50.866;5.420;2023-11-18T05:39:28;9.20;65.60
83289;DHT22;73193;50.866;5.420;2023-11-18T05:41:01;9.30;65.60
83289;DHT22;73193;50.866;5.420;2023-11-18T05:42:34;9.40;65.40
83289;DHT22;73193;50.866;5.420;2023-11-18T05:44:07;9.40;65.00
83289;DHT22;73193;50.866;5.420;2023-11-18T05:45:47;9.40;65.20
83289;DHT22;73193;50.866;5.420;2023-11-18T05:47:47;9.30;65.40
83289;DHT22;73193;50.866;5.420;2023-11-18T05:49:18;9.40;65.50
83289;DHT22;73193;50.866;5.420;2023-11-18T05:50:48;9.40;65.30
83289;DHT22;73193;50.866;5.420;2023-11-18T05:52:19;9.40;65.30
83289;DHT22;73193;50.866;5.420;2023-11-18T05:53:53;9.50;65.00
83289;DHT22;73193;50.866;5.420;2023-11-18T05:55:24;9.50;64.90
83289;DHT22;73193;50.866;5.420;2023-11-18T05:56:54;9.50;65.00
83289;DHT22;73193;50.866;5.420;2023-11-18T05:58:25;9.50;64.80
83289;DHT22;73193;50.866;5.420;2023-11-18T05:59:56;9.50;65.00
83289;DHT22;73193;50.866;5.420;2023-11-18T06:01:26;9.60;64.60
83289;DHT22;73193;50.866;5.420;2023-11-18T06:03:00;9.60;64.80
83289;DHT22;73193;50.866;5.420;2023-11-18T06:04:31;9.50;64.70
83289;DHT22;73193;50.866;5.420;2023-11-18T06:06:01;9.40;65.10
83289;DHT22;73193;50.866;5.420;2023-11-18T06:07:32;9.40;65.10
83289;DHT22;73193;50.866;5.420;2023-11-18T06:09:03;9.40;65.40
83289;DHT22;73193;50.866;5.420;2023-11-18T06:10:39;9.50;65.20
83289;DHT22;73193;50.866;5.420;2023-11-18T06:12:10;9.50;65.10
83289;DHT22;73193;50.866;5.420;2023-11-18T06:13:46;9.60;64.80
83289;DHT22;73193;50.866;5.420;2023-11-18T06:15:17;9.60;64.80
83289;DHT22;73193;50.866;5.420;2023-11-18T06:16:49;9.60;64.80
83289;DHT22;73193;50.866;5.420;2023-11-18T06:18:20;9.60;64.70
83289;DHT22;73193;50.866;5.420;2023-11-18T06:19:51;9.60;64.80
83289;DHT22;73193;50.866;5.420;2023-11-18T06:21:24;9.40;64.80
83289;DHT22;73193;50.866;5.420;2023-11-18T06:22:55;9.40;65.30
83289;DHT22;73193;50.866;5.420;2023-11-18T06:24:27;9.50;64.90
83289;DHT22;73193;50.866;5.420;2023-11-18T06:25:59;9.40;65.30
83289;DHT22;73193;50.866;5.420;2023-11-18T06:27:30;9.50;64.90
83289;DHT22;73193;50.866;5.420;2023-11-18T06:29:02;9.40;65.10
83289;DHT22;73193;50.866;5.420;2023-11-18T06:30:33;9.40;65.20
83289;DHT22;73193;50.866;5.420;2023-11-18T06:32:03;9.40;64.90
83289;DHT22;73193;50.866;5.420;2023-11-18T06:35:13;9.40;65.40
83289;DHT22;73193;50.866;5.420;2023-11-18T06:36:45;9.50;65.00
83289;DHT22;73193;50.866;5.420;2023-11-18T06:38:16;9.50;65.10
83289;DHT22;73193;50.866;5.420;2023-11-18T06:39:49;9.50;65.00
83289;DHT22;73193;50.866;5.420;2023-11-18T06:41:22;9.60;64.90
83289;DHT22;73193;50.866;5.420;2023-11-18T06:43:07;9.50;64.90
83289;DHT22;73193;50.866;5.420;2023-11-18T06:44:41;9.50;65.20
83289;DHT22;73193;50.866;5.420;2023-11-18T06:46:12;9.50;65.20
83289;DHT22;73193;50.866;5.420;2023-11-18T06:47:44;9.60;64.90
83289;DHT22;73193;50.866;5.420;2023-11-18T06:49:15;9.60;65.00
83289;DHT22;73193;50.866;5.420;2023-11-18T06:50:46;9.60;65.00
83289;DHT22;73193;50.866;5.420;2023-11-18T06:52:17;9.60;64.90
83289;DHT22;73193;50.866;5.420;2023-11-18T06:53:49;9.80;64.70
83289;DHT22;73193;50.866;5.420;2023-11-18T06:55:20;9.80;64.50
83289;DHT22;73193;50.866;5.420;2023-11-18T06:56:51;9.70;64.80
83289;DHT22;73193;50.866;5.420;2023-11-18T06:58:23;9.70;64.80
83289;DHT22;73193;50.866;5.420;2023-11-18T06:59:53;9.60;64.80
83289;DHT22;73193;50.866;5.420;2023-11-18T07:01:24;9.60;65.20
83289;DHT22;73193;50.866;5.420;2023-11-18T07:02:55;9.60;65.20
83289;DHT22;73193;50.866;5.420;2023-11-18T07:04:26;9.70;65.10
83289;DHT22;73193;50.866;5.420;2023-11-18T07:05:57;9.70;65.10
83289;DHT22;73193;50.866;5.420;2023-11-18T07:07:27;9.70;65.10
83289;DHT22;73193;50.866;5.420;2023-11-18T07:08:58;9.70;65.40
83289;DHT22;73193;50.866;5.420;2023-11-18T07:10:30;9.80;64.90
83289;DHT22;73193;50.866;5.420;2023-11-18T07:12:02;9.80;65.10
83289;DHT22;73193;50.866;5.420;2023-11-18T07:13:34;9.80;65.20
83289;DHT22;73193;50.866;5.420;2023-11-18T07:15:05;9.80;65.10
83289;DHT22;73193;50.866;5.420;2023-11-18T07:16:37;9.80;65.10
83289;DHT22;73193;50.866;5.420;2023-11-18T07:18:08;9.80;65.10
83289;DHT22;73193;50.866;5.420;2023-11-18T07:19:39;9.80;65.00
83289;DHT22;73193;50.866;5.420;2023-11-18T07:21:10;9.80;65.00
83289;DHT22;73193;50.866;5.420;2023-11-18T07:22:41;9.90;65.10
83289;DHT22;73193;50.866;5.420;2023-11-18T07:24:11;10.00;65.10
83289;DHT22;73193;50.866;5.420;2023-11-18T07:25:43;9.90;65.10
83289;DHT22;73193;50.866;5.420;2023-11-18T07:27:14;9.90;65.40
83289;DHT22;73193;50.866;5.420;2023-11-18T07:28:46;10.00;65.20
83289;DHT22;73193;50.866;5.420;2023-11-18T07:30:17;10.10;64.80
83289;DHT22;73193;50.866;5.420;2023-11-18T07:31:48;9.90;65.00
83289;DHT22;73193;50.866;5.420;2023-11-18T07:33:20;9.90;65.40
83289;DHT22;73193;50.866;5.420;2023-11-18T07:34:51;10.00;65.20
83289;DHT22;73193;50.866;5.420;2023-11-18T07:36:21;10.00;65.10
83289;DHT22;73193;50.866;5.420;2023-11-18T07:37:52;10.00;65.50
83289;DHT22;73193;50.866;5.420;2023-11-18T07:39:23;10.00;65.20
83289;DHT22;73193;50.866;5.420;2023-11-18T07:41:00;10.10;65.00
83289;DHT22;73193;50.866;5.420;2023-11-18T07:42:33;10.00;65.50
83289;DHT22;73193;50.866;5.420;2023-11-18T07:44:06;10.10;65.20
83289;DHT22;73193;50.866;5.420;2023-11-18T07:45:38;10.10;65.20
83289;DHT22;73193;50.866;5.420;2023-11-18T07:47:09;10.10;65.20
83289;DHT22;73193;50.866;5.420;2023-11-18T07:48:42;10.10;65.10
83289;DHT22;73193;50.866;5.420;2023-11-18T07:50:12;10.20;64.80
83289;DHT22;73193;50.866;5.420;2023-11-18T07:51:43;10.10;65.00
83289;DHT22;73193;50.866;5.420;2023-11-18T07:53:14;10.00;65.20
83289;DHT22;73193;50.866;5.420;2023-11-18T07:54:45;10.00;65.50
83289;DHT22;73193;50.866;5.420;2023-11-18T07:56:16;10.00;65.20
83289;DHT22;73193;50.866;5.420;2023-11-18T07:57:47;10.00;65.30
83289;DHT22;73193;50.866;5.420;2023-11-18T07:59:18;10.10;65.50
83289;DHT22;73193;50.866;5.420;2023-11-18T08:00:48;10.10;64.90
83289;DHT22;73193;50.866;5.420;2023-11-18T08:02:20;10.20;65.30
83289;DHT22;73193;50.866;5.420;2023-11-18T08:03:51;10.20;65.30
83289;DHT22;73193;50.866;5.420;2023-11-18T08:05:23;10.30;65.10
83289;DHT22;73193;50.866;5.420;2023-11-18T08:06:54;10.20;65.30
83289;DHT22;73193;50.866;5.420;2023-11-18T08:08:25;10.30;65.60
83289;DHT22;73193;50.866;5.420;2023-11-18T08:09:57;10.10;65.70
83289;DHT22;73193;50.866;5.420;2023-11-18T08:11:28;10.10;66.00
83289;DHT22;73193;50.866;5.420;2023-11-18T08:12:59;10.20;65.80
83289;DHT22;73193;50.866;5.420;2023-11-18T08:14:31;10.30;65.60
83289;DHT22;73193;50.866;5.420;2023-11-18T08:16:02;10.30;65.70
83289;DHT22;73193;50.866;5.420;2023-11-18T08:17:33;10.20;65.80
83289;DHT22;73193;50.866;5.420;2023-11-18T08:19:04;10.20;66.20
83289;DHT22;73193;50.866;5.420;2023-11-18T08:20:38;10.10;66.20
83289;DHT22;73193;50.866;5.420;2023-11-18T08:22:09;10.20;65.90
83289;DHT22;73193;50.866;5.420;2023-11-18T08:23:39;10.10;66.30
83289;DHT22;73193;50.866;5.420;2023-11-18T08:25:11;10.20;66.00
83289;DHT22;73193;50.866;5.420;2023-11-18T08:26:43;10.30;65.90
83289;DHT22;73193;50.866;5.420;2023-11-18T08:28:13;10.30;66.00
83289;DHT22;73193;50.866;5.420;2023-11-18T08:29:44;10.30;65.90
83289;DHT22;73193;50.866;5.420;2023-11-18T08:31:16;10.30;65.80
83289;DHT22;73193;50.866;5.420;2023-11-18T08:32:47;10.40;65.80
83289;DHT22;73193;50.866;5.420;2023-11-18T08:34:19;10.50;65.50
83289;DHT22;73193;50.866;5.420;2023-11-18T08:35:49;10.30;65.90
83289;DHT22;73193;50.866;5.420;2023-11-18T08:37:20;10.30;65.90
83289;DHT22;73193;50.866;5.420;2023-11-18T08:38:51;10.30;66.10
83289;DHT22;73193;50.866;5.420;2023-11-18T08:40:22;10.30;65.90
83289;DHT22;73193;50.866;5.420;2023-11-18T08:41:52;10.30;65.60
83289;DHT22;73193;50.866;5.420;2023-11-18T08:43:23;10.40;65.80
83289;DHT22;73193;50.866;5.420;2023-11-18T08:44:55;10.30;66.10
83289;DHT22;73193;50.866;5.420;2023-11-18T08:46:26;10.40;65.90
83289;DHT22;73193;50.866;5.420;2023-11-18T08:47:58;10.40;65.90
83289;DHT22;73193;50.866;5.420;2023-11-18T08:49:29;10.40;66.00
83289;DHT22;73193;50.866;5.420;2023-11-18T08:51:04;10.30;66.20
83289;DHT22;73193;50.866;5.420;2023-11-18T08:52:39;10.30;66.40
83289;DHT22;73193;50.866;5.420;2023-11-18T08:54:13;10.40;66.20
83289;DHT22;73193;50.866;5.420;2023-11-18T08:55:55;10.30;66.40
83289;DHT22;73193;50.866;5.420;2023-11-18T08:57:26;10.30;66.40
83289;DHT22;73193;50.866;5.420;2023-11-18T08:58:56;10.20;66.50
83289;DHT22;73193;50.866;5.420;2023-11-18T09:00:31;10.30;66.80
83289;DHT22;73193;50.866;5.420;2023-11-18T09:02:18;10.40;66.50
83289;DHT22;73193;50.866;5.420;2023-11-18T09:03:53;10.40;66.20
83289;DHT22;73193;50.866;5.420;2023-11-18T09:05:24;10.30;66.50
83289;DHT22;73193;50.866;5.420;2023-11-18T09:06:55;10.30;66.80
83289;DHT22;73193;50.866;5.420;2023-11-18T09:08:35;10.40;66.60
83289;DHT22;73193;50.866;5.420;2023-11-18T09:10:12;10.30;66.40
83289;DHT22;73193;50.866;5.420;2023-11-18T09:11:43;10.30;66.90
83289;DHT22;73193;50.866;5.420;2023-11-18T09:13:14;10.30;66.90
83289;DHT22;73193;50.866;5.420;2023-11-18T09:14:45;10.30;66.80
83289;DHT22;73193;50.866;5.420;2023-11-18T09:16:18;10.40;66.90
83289;DHT22;73193;50.866;5.420;2023-11-18T09:17:51;10.50;66.50
83289;DHT22;73193;50.866;5.420;2023-11-18T09:19:23;10.50;66.40
83289;DHT22;73193;50.866;5.420;2023-11-18T09:20:54;10.30;67.00
83289;DHT22;73193;50.866;5.420;2023-11-18T09:22:25;10.30;67.00
83289;DHT22;73193;50.866;5.420;2023-11-18T09:23:55;10.30;66.90
83289;DHT22;73193;50.866;5.420;2023-11-18T09:25:29;10.30;66.90
83289;DHT22;73193;50.866;5.420;2023-11-18T09:27:00;10.30;67.10
83289;DHT22;73193;50.866;5.420;2023-11-18T09:28:30;10.40;66.90
83289;DHT22;73193;50.866;5.420;2023-11-18T09:30:01;10.40;66.90
83289;DHT22;73193;50.866;5.420;2023-11-18T09:31:32;10.50;66.90
83289;DHT22;73193;50.866;5.420;2023-11-18T09:33:03;10.60;66.70
83289;DHT22;73193;50.866;5.420;2023-11-18T09:34:36;10.70;66.40
83289;DHT22;73193;50.866;5.420;2023-11-18T09:36:12;10.70;66.20
83289;DHT22;73193;50.866;5.420;2023-11-18T09:37:42;10.60;66.70
83289;DHT22;73193;50.866;5.420;2023-11-18T09:39:13;10.60;66.40
83289;DHT22;73193;50.866;5.420;2023-11-18T09:41:00;10.60;66.50
83289;DHT22;73193;50.866;5.420;2023-11-18T09:42:32;10.60;66.50
83289;DHT22;73193;50.866;5.420;2023-11-18T09:44:06;10.50;66.50
83289;DHT22;73193;50.866;5.420;2023-11-18T09:45:36;10.50;66.80
83289;DHT22;73193;50.866;5.420;2023-11-18T09:47:08;10.60;66.70
83289;DHT22;73193;50.866;5.420;2023-11-18T09:48:46;10.60;66.80
83289;DHT22;73193;50.866;5.420;2023-11-18T09:50:37;10.50;67.00